sensor_id;sensor_type;location;lat;lon;timestamp;temperature;humidity
3086;DHT22;52812;48.960;9.108;2024-02-21T00:00:54;5.50;99.90
3086;DHT22;52812;48.960;9.108;2024-02-21T00:03:20;5.50;99.90
3086;DHT22;52812;48.960;9.108;2024-02-21T00:05:45;5.60;99.90
3086;DHT22;52812;48.960;9.108;2024-02-21T00:08:11;5.60;99.90
3086;DHT22;52812;48.960;9.108;2024-02-21T00:10:36;5.70;99.90
3086;DHT22;52812;48.960;9.108;2024-02-21T00:13:02;5.70;99.90
3086;DHT22;52812;48.960;9.108;2024-02-21T00:15:28;5.70;99.90
3086;DHT22;52812;48.960;9.108;2024-02-21T00:17:54;5.70;99.90
3086;DHT22;52812;48.960;9.108;2024-02-21T00:20:19;5.80;99.90
3086;DHT22;52812;48.960;9.108;2024-02-21T00:22:45;5.80;99.90
3086;DHT22;52812;48.960;9.108;2024-02-21T00:25:11;5.80;99.90
3086;DHT22;52812;48.960;9.108;2024-02-21T00:27:36;5.80;99.90
3086;DHT22;52812;48.960;9.108;2024-02-21T00:30:03;5.90;99.90
3086;DHT22;52812;48.960;9.108;2024-02-21T00:32:28;5.90;99.90
3086;DHT22;52812;48.960;9.108;2024-02-21T00:34:55;5.90;99.90
3086;DHT22;52812;48.960;9.108;2024-02-21T00:37:20;5.90;99.90
3086;DHT22;52812;48.960;9.108;2024-02-21T00:39:46;5.90;99.90
3086;DHT22;52812;48.960;9.108;2024-02-21T00:42:11;5.90;99.90
3086;DHT22;52812;48.960;9.108;2024-02-21T00:44:37;5.90;99.90
3086;DHT22;52812;48.960;9.108;2024-02-21T00:47:03;5.90;99.90
3086;DHT22;52812;48.960;9.108;2024-02-21T00:49:28;6.00;99.90
3086;DHT22;52812;48.960;9.108;2024-02-21T00:51:54;6.00;99.90
3086;DHT22;52812;48.960;9.108;2024-02-21T00:54:19;6.00;99.90
3086;DHT22;52812;48.960;9.108;2024-02-21T00:56:45;6.00;99.90
3086;DHT22;52812;48.960;9.108;2024-02-21T00:59:10;6.10;99.90
3086;DHT22;52812;48.960;9.108;2024-02-21T01:01:36;6.10;99.90
3086;DHT22;52812;48.960;9.108;2024-02-21T01:04:01;6.10;99.90
3086;DHT22;52812;48.960;9.108;2024-02-21T01:06:27;6.10;99.90
3086;DHT22;52812;48.960;9.108;2024-02-21T01:08:52;6.10;99.90
3086;DHT22;52812;48.960;9.108;2024-02-21T01:11:18;6.00;99.90
3086;DHT22;52812;48.960;9.108;2024-02-21T01:13:44;6.00;99.90
3086;DHT22;52812;48.960;9.108;2024-02-21T01:16:10;6.00;99.90
3086;DHT22;52812;48.960;9.108;2024-02-21T01:18:37;6.00;99.90
3086;DHT22;52812;48.960;9.108;2024-02-21T01:21:03;6.00;99.90
3086;DHT22;52812;48.960;9.108;2024-02-21T01:23:32;6.00;99.90
3086;DHT22;52812;48.960;9.108;2024-02-21T01:25:58;6.00;99.90
3086;DHT22;52812;48.960;9.108;2024-02-21T01:28:23;6.00;99.90
3086;DHT22;52812;48.960;9.108;2024-02-21T01:30:49;6.00;99.90
3086;DHT22;52812;48.960;9.108;2024-02-21T01:33:14;5.90;99.90
3086;DHT22;52812;48.960;9.108;2024-02-21T01:35:40;6.00;99.90
3086;DHT22;52812;48.960;9.108;2024-02-21T01:38:06;6.00;99.90
3086;DHT22;52812;48.960;9.108;2024-02-21T01:40:31;6.00;99.90
3086;DHT22;52812;48.960;9.108;2024-02-21T01:42:57;6.00;99.90
3086;DHT22;52812;48.960;9.108;2024-02-21T01:45:22;6.00;99.90
3086;DHT22;52812;48.960;9.108;2024-02-21T01:47:49;6.00;99.90
3086;DHT22;52812;48.960;9.108;2024-02-21T01:50:15;6.10;99.90
3086;DHT22;52812;48.960;9.108;2024-02-21T01:52:42;6.10;99.90
3086;DHT22;52812;48.960;9.108;2024-02-21T01:55:10;6.20;99.90
3086;DHT22;52812;48.960;9.108;2024-02-21T01:57:36;6.30;99.90
3086;DHT22;52812;48.960;9.108;2024-02-21T02:00:02;6.30;99.90
3086;DHT22;52812;48.960;9.108;2024-02-21T02:02:29;6.30;99.90
3086;DHT22;52812;48.960;9.108;2024-02-21T02:04:55;6.40;99.90
3086;DHT22;52812;48.960;9.108;2024-02-21T02:07:21;6.40;99.90
3086;DHT22;52812;48.960;9.108;2024-02-21T02:09:47;6.40;99.90
3086;DHT22;52812;48.960;9.108;2024-02-21T02:12:12;6.40;99.90
3086;DHT22;52812;48.960;9.108;2024-02-21T02:14:38;6.40;99.90
3086;DHT22;52812;48.960;9.108;2024-02-21T02:17:04;6.40;99.90
3086;DHT22;52812;48.960;9.108;2024-02-21T02:19:30;6.40;99.90
3086;DHT22;52812;48.960;9.108;2024-02-21T02:22:00;6.40;99.90
3086;DHT22;52812;48.960;9.108;2024-02-21T02:24:30;6.30;99.90
3086;DHT22;52812;48.960;9.108;2024-02-21T02:26:55;6.30;99.90
3086;DHT22;52812;48.960;9.108;2024-02-21T02:29:21;6.40;99.90
3086;DHT22;52812;48.960;9.108;2024-02-21T02:31:48;6.40;99.90
3086;DHT22;52812;48.960;9.108;2024-02-21T02:34:14;6.40;99.90
3086;DHT22;52812;48.960;9.108;2024-02-21T02:36:39;6.40;99.90
3086;DHT22;52812;48.960;9.108;2024-02-21T02:39:05;6.40;99.90
3086;DHT22;52812;48.960;9.108;2024-02-21T02:41:30;6.40;99.90
3086;DHT22;52812;48.960;9.108;2024-02-21T02:43:56;6.30;99.90
3086;DHT22;52812;48.960;9.108;2024-02-21T02:46:21;6.30;99.90
3086;DHT22;52812;48.960;9.108;2024-02-21T02:48:47;6.30;99.90
3086;DHT22;52812;48.960;9.108;2024-02-21T02:51:12;6.30;99.90
3086;DHT22;52812;48.960;9.108;2024-02-21T02:53:38;6.30;99.90
3086;DHT22;52812;48.960;9.108;2024-02-21T02:56:04;6.20;99.90
3086;DHT22;52812;48.960;9.108;2024-02-21T02:58:29;6.20;99.90
3086;DHT22;52812;48.960;9.108;2024-02-21T03:00:55;6.20;99.90
3086;DHT22;52812;48.960;9.108;2024-02-21T03:03:20;6.10;99.90
3086;DHT22;52812;48.960;9.108;2024-02-21T03:05:46;6.10;99.90
3086;DHT22;52812;48.960;9.108;2024-02-21T03:08:11;6.10;99.90
3086;DHT22;52812;48.960;9.108;2024-02-21T03:10:37;6.10;99.90
3086;DHT22;52812;48.960;9.108;2024-02-21T03:13:02;6.10;99.90
3086;DHT22;52812;48.960;9.108;2024-02-21T03:15:29;6.00;99.90
3086;DHT22;52812;48.960;9.108;2024-02-21T03:17:54;6.00;99.90
3086;DHT22;52812;48.960;9.108;2024-02-21T03:20:20;5.90;99.90
3086;DHT22;52812;48.960;9.108;2024-02-21T03:22:45;5.90;99.90
3086;DHT22;52812;48.960;9.108;2024-02-21T03:25:11;5.90;99.90
3086;DHT22;52812;48.960;9.108;2024-02-21T03:27:38;5.90;99.90
3086;DHT22;52812;48.960;9.108;2024-02-21T03:30:04;5.80;99.90
3086;DHT22;52812;48.960;9.108;2024-02-21T03:32:29;5.80;99.90
3086;DHT22;52812;48.960;9.108;2024-02-21T03:34:55;5.80;99.90
3086;DHT22;52812;48.960;9.108;2024-02-21T03:37:21;5.70;99.90
3086;DHT22;52812;48.960;9.108;2024-02-21T03:39:46;5.70;99.90
3086;DHT22;52812;48.960;9.108;2024-02-21T03:42:12;5.70;99.90
3086;DHT22;52812;48.960;9.108;2024-02-21T03:44:38;5.70;99.90
3086;DHT22;52812;48.960;9.108;2024-02-21T03:47:04;5.70;99.90
3086;DHT22;52812;48.960;9.108;2024-02-21T03:49:29;5.70;99.90
3086;DHT22;52812;48.960;9.108;2024-02-21T03:51:55;5.70;99.90
3086;DHT22;52812;48.960;9.108;2024-02-21T03:54:21;5.70;99.90
3086;DHT22;52812;48.960;9.108;2024-02-21T03:56:47;5.70;99.90
3086;DHT22;52812;48.960;9.108;2024-02-21T03:59:15;5.70;99.90
3086;DHT22;52812;48.960;9.108;2024-02-21T04:01:41;5.60;99.90
3086;DHT22;52812;48.960;9.108;2024-02-21T04:04:06;5.60;99.90
3086;DHT22;52812;48.960;9.108;2024-02-21T04:06:33;5.60;99.90
3086;DHT22;52812;48.960;9.108;2024-02-21T04:08:58;5.60;99.90
3086;DHT22;52812;48.960;9.108;2024-02-21T04:11:24;5.70;99.90
3086;DHT22;52812;48.960;9.108;2024-02-21T04:13:50;5.60;99.90
3086;DHT22;52812;48.960;9.108;2024-02-21T04:16:16;5.60;99.90
3086;DHT22;52812;48.960;9.108;2024-02-21T04:18:42;5.60;99.90
3086;DHT22;52812;48.960;9.108;2024-02-21T04:21:14;5.60;99.90
3086;DHT22;52812;48.960;9.108;2024-02-21T04:23:41;5.60;99.90
3086;DHT22;52812;48.960;9.108;2024-02-21T04:26:06;5.50;99.90
3086;DHT22;52812;48.960;9.108;2024-02-21T04:28:32;5.40;99.90
3086;DHT22;52812;48.960;9.108;2024-02-21T04:30:57;5.30;99.90
3086;DHT22;52812;48.960;9.108;2024-02-21T04:33:23;5.20;99.90
3086;DHT22;52812;48.960;9.108;2024-02-21T04:35:48;5.20;99.90
3086;DHT22;52812;48.960;9.108;2024-02-21T04:38:14;5.20;99.90
3086;DHT22;52812;48.960;9.108;2024-02-21T04:40:40;5.10;99.90
3086;DHT22;52812;48.960;9.108;2024-02-21T04:43:05;5.00;99.90
3086;DHT22;52812;48.960;9.108;2024-02-21T04:45:31;4.90;99.90
3086;DHT22;52812;48.960;9.108;2024-02-21T04:47:56;4.90;99.90
3086;DHT22;52812;48.960;9.108;2024-02-21T04:50:22;4.90;99.90
3086;DHT22;52812;48.960;9.108;2024-02-21T04:52:47;4.90;99.90
3086;DHT22;52812;48.960;9.108;2024-02-21T04:55:14;4.80;99.90
3086;DHT22;52812;48.960;9.108;2024-02-21T04:57:39;4.80;99.90
3086;DHT22;52812;48.960;9.108;2024-02-21T05:00:06;4.70;99.90
3086;DHT22;52812;48.960;9.108;2024-02-21T05:02:32;4.60;99.90
3086;DHT22;52812;48.960;9.108;2024-02-21T05:04:57;4.50;99.90
3086;DHT22;52812;48.960;9.108;2024-02-21T05:07:23;4.40;99.90
3086;DHT22;52812;48.960;9.108;2024-02-21T05:09:48;4.40;99.90
3086;DHT22;52812;48.960;9.108;2024-02-21T05:12:14;4.40;99.90
3086;DHT22;52812;48.960;9.108;2024-02-21T05:14:39;4.40;99.90
3086;DHT22;52812;48.960;9.108;2024-02-21T05:17:05;4.30;99.90
3086;DHT22;52812;48.960;9.108;2024-02-21T05:19:31;4.30;99.90
3086;DHT22;52812;48.960;9.108;2024-02-21T05:21:56;4.20;99.90
3086;DHT22;52812;48.960;9.108;2024-02-21T05:24:22;4.20;99.90
3086;DHT22;52812;48.960;9.108;2024-02-21T05:26:47;4.10;99.90
3086;DHT22;52812;48.960;9.108;2024-02-21T05:29:13;4.10;99.90
3086;DHT22;52812;48.960;9.108;2024-02-21T05:34:20;4.30;99.90
3086;DHT22;52812;48.960;9.108;2024-02-21T05:36:46;4.40;99.90
3086;DHT22;52812;48.960;9.108;2024-02-21T05:39:13;4.50;99.90
3086;DHT22;52812;48.960;9.108;2024-02-21T05:41:38;4.60;99.90
3086;DHT22;52812;48.960;9.108;2024-02-21T05:44:04;4.60;99.90
3086;DHT22;52812;48.960;9.108;2024-02-21T05:46:29;4.60;99.90
3086;DHT22;52812;48.960;9.108;2024-02-21T05:48:55;4.60;99.90
3086;DHT22;52812;48.960;9.108;2024-02-21T05:51:20;4.60;99.90
3086;DHT22;52812;48.960;9.108;2024-02-21T05:53:46;4.60;99.90
3086;DHT22;52812;48.960;9.108;2024-02-21T05:56:12;4.50;99.90
3086;DHT22;52812;48.960;9.108;2024-02-21T05:58:38;4.50;99.90
3086;DHT22;52812;48.960;9.108;2024-02-21T06:01:04;4.40;99.90
3086;DHT22;52812;48.960;9.108;2024-02-21T06:03:32;4.40;99.90
3086;DHT22;52812;48.960;9.108;2024-02-21T06:05:58;4.40;99.90
3086;DHT22;52812;48.960;9.108;2024-02-21T06:08:23;4.30;99.90
3086;DHT22;52812;48.960;9.108;2024-02-21T06:10:49;4.20;99.90
3086;DHT22;52812;48.960;9.108;2024-02-21T06:13:17;4.10;99.90
3086;DHT22;52812;48.960;9.108;2024-02-21T06:15:45;3.90;99.90
3086;DHT22;52812;48.960;9.108;2024-02-21T06:18:10;3.90;99.90
3086;DHT22;52812;48.960;9.108;2024-02-21T06:20:36;3.90;99.90
3086;DHT22;52812;48.960;9.108;2024-02-21T06:23:04;3.90;99.90
3086;DHT22;52812;48.960;9.108;2024-02-21T06:25:30;3.90;99.90
3086;DHT22;52812;48.960;9.108;2024-02-21T06:27:55;3.70;99.90
3086;DHT22;52812;48.960;9.108;2024-02-21T06:30:21;3.70;99.90
3086;DHT22;52812;48.960;9.108;2024-02-21T06:32:46;3.70;99.90
3086;DHT22;52812;48.960;9.108;2024-02-21T06:35:12;3.70;99.90
3086;DHT22;52812;48.960;9.108;2024-02-21T06:37:37;3.60;99.90
3086;DHT22;52812;48.960;9.108;2024-02-21T06:40:04;3.50;99.90
3086;DHT22;52812;48.960;9.108;2024-02-21T06:42:29;3.60;99.90
3086;DHT22;52812;48.960;9.108;2024-02-21T06:44:55;3.60;99.90
3086;DHT22;52812;48.960;9.108;2024-02-21T06:47:21;3.70;99.90
3086;DHT22;52812;48.960;9.108;2024-02-21T06:49:51;3.70;99.90
3086;DHT22;52812;48.960;9.108;2024-02-21T06:52:20;3.80;99.90
3086;DHT22;52812;48.960;9.108;2024-02-21T06:54:46;3.70;99.90
3086;DHT22;52812;48.960;9.108;2024-02-21T06:57:12;3.80;99.90
3086;DHT22;52812;48.960;9.108;2024-02-21T06:59:39;3.80;99.90
3086;DHT22;52812;48.960;9.108;2024-02-21T07:02:05;3.90;99.90
3086;DHT22;52812;48.960;9.108;2024-02-21T07:04:31;4.00;99.90
3086;DHT22;52812;48.960;9.108;2024-02-21T07:06:56;4.10;99.90
3086;DHT22;52812;48.960;9.108;2024-02-21T07:09:25;4.10;99.90
3086;DHT22;52812;48.960;9.108;2024-02-21T07:11:51;4.30;99.90
3086;DHT22;52812;48.960;9.108;2024-02-21T07:14:17;4.40;99.90
3086;DHT22;52812;48.960;9.108;2024-02-21T07:16:43;4.40;99.90
3086;DHT22;52812;48.960;9.108;2024-02-21T07:19:09;4.40;99.90
3086;DHT22;52812;48.960;9.108;2024-02-21T07:21:34;4.40;99.90
3086;DHT22;52812;48.960;9.108;2024-02-21T07:24:03;4.60;99.90
3086;DHT22;52812;48.960;9.108;2024-02-21T07:26:29;4.70;99.90
3086;DHT22;52812;48.960;9.108;2024-02-21T07:28:55;4.80;99.90
3086;DHT22;52812;48.960;9.108;2024-02-21T07:31:20;5.00;99.90
3086;DHT22;52812;48.960;9.108;2024-02-21T07:33:46;5.20;99.90
3086;DHT22;52812;48.960;9.108;2024-02-21T07:36:11;5.40;99.90
3086;DHT22;52812;48.960;9.108;2024-02-21T07:38:37;5.50;99.90
3086;DHT22;52812;48.960;9.108;2024-02-21T07:41:02;5.70;99.90
3086;DHT22;52812;48.960;9.108;2024-02-21T07:43:29;5.80;99.90
3086;DHT22;52812;48.960;9.108;2024-02-21T07:45:55;5.90;99.90
3086;DHT22;52812;48.960;9.108;2024-02-21T07:48:21;6.10;99.90
3086;DHT22;52812;48.960;9.108;2024-02-21T07:50:50;6.30;99.90
3086;DHT22;52812;48.960;9.108;2024-02-21T07:53:16;6.40;99.90
3086;DHT22;52812;48.960;9.108;2024-02-21T07:55:41;6.40;99.90
3086;DHT22;52812;48.960;9.108;2024-02-21T07:58:07;6.50;99.90
3086;DHT22;52812;48.960;9.108;2024-02-21T08:00:33;6.50;99.90
3086;DHT22;52812;48.960;9.108;2024-02-21T08:02:58;6.50;99.90
3086;DHT22;52812;48.960;9.108;2024-02-21T08:05:24;6.60;99.90
3086;DHT22;52812;48.960;9.108;2024-02-21T08:07:49;6.60;99.90
3086;DHT22;52812;48.960;9.108;2024-02-21T08:10:15;6.70;99.90
3086;DHT22;52812;48.960;9.108;2024-02-21T08:12:41;6.90;99.90
3086;DHT22;52812;48.960;9.108;2024-02-21T08:15:06;7.00;99.90
3086;DHT22;52812;48.960;9.108;2024-02-21T08:17:37;7.20;99.90
3086;DHT22;52812;48.960;9.108;2024-02-21T08:20:04;7.40;99.90
3086;DHT22;52812;48.960;9.108;2024-02-21T08:22:30;7.60;99.90
3086;DHT22;52812;48.960;9.108;2024-02-21T08:24:56;7.70;99.90
3086;DHT22;52812;48.960;9.108;2024-02-21T08:27:21;7.80;99.90
3086;DHT22;52812;48.960;9.108;2024-02-21T08:29:47;7.90;99.90
3086;DHT22;52812;48.960;9.108;2024-02-21T08:32:12;7.90;99.90
3086;DHT22;52812;48.960;9.108;2024-02-21T08:34:38;8.00;99.90
3086;DHT22;52812;48.960;9.108;2024-02-21T08:37:04;8.10;99.90
3086;DHT22;52812;48.960;9.108;2024-02-21T08:39:29;8.10;99.90
3086;DHT22;52812;48.960;9.108;2024-02-21T08:41:56;8.10;99.90
3086;DHT22;52812;48.960;9.108;2024-02-21T08:44:25;8.10;99.90
3086;DHT22;52812;48.960;9.108;2024-02-21T08:46:51;8.10;99.90
3086;DHT22;52812;48.960;9.108;2024-02-21T08:49:17;8.20;99.90
3086;DHT22;52812;48.960;9.108;2024-02-21T08:51:42;8.40;99.90
3086;DHT22;52812;48.960;9.108;2024-02-21T08:54:08;8.40;99.90
3086;DHT22;52812;48.960;9.108;2024-02-21T08:56:34;8.20;99.90
3086;DHT22;52812;48.960;9.108;2024-02-21T08:59:00;8.10;99.90
3086;DHT22;52812;48.960;9.108;2024-02-21T09:01:27;8.10;99.90
3086;DHT22;52812;48.960;9.108;2024-02-21T09:03:52;8.10;99.90
3086;DHT22;52812;48.960;9.108;2024-02-21T09:06:19;8.20;99.90
3086;DHT22;52812;48.960;9.108;2024-02-21T09:08:45;8.40;99.90
3086;DHT22;52812;48.960;9.108;2024-02-21T09:11:11;8.40;99.90
3086;DHT22;52812;48.960;9.108;2024-02-21T09:13:37;8.50;99.90
3086;DHT22;52812;48.960;9.108;2024-02-21T09:16:02;8.50;99.90
3086;DHT22;52812;48.960;9.108;2024-02-21T09:18:29;8.60;99.90
3086;DHT22;52812;48.960;9.108;2024-02-21T09:20:55;8.70;99.90
3086;DHT22;52812;48.960;9.108;2024-02-21T09:23:20;8.70;99.90
3086;DHT22;52812;48.960;9.108;2024-02-21T09:25:48;8.70;99.90
3086;DHT22;52812;48.960;9.108;2024-02-21T09:28:14;8.90;99.90
3086;DHT22;52812;48.960;9.108;2024-02-21T09:30:40;9.00;99.90
3086;DHT22;52812;48.960;9.108;2024-02-21T09:33:05;9.00;99.90
3086;DHT22;52812;48.960;9.108;2024-02-21T09:35:31;9.20;99.90
3086;DHT22;52812;48.960;9.108;2024-02-21T09:37:59;9.30;99.90
3086;DHT22;52812;48.960;9.108;2024-02-21T09:40:25;9.40;99.90
3086;DHT22;52812;48.960;9.108;2024-02-21T09:43:02;9.40;99.90
3086;DHT22;52812;48.960;9.108;2024-02-21T09:45:29;9.50;99.90
3086;DHT22;52812;48.960;9.108;2024-02-21T09:48:24;9.60;99.90
3086;DHT22;52812;48.960;9.108;2024-02-21T09:50:51;9.80;99.90
3086;DHT22;52812;48.960;9.108;2024-02-21T09:53:18;9.90;99.90
3086;DHT22;52812;48.960;9.108;2024-02-21T09:55:45;9.90;99.90
3086;DHT22;52812;48.960;9.108;2024-02-21T09:58:12;9.80;99.90
3086;DHT22;52812;48.960;9.108;2024-02-21T10:00:38;10.00;99.90
3086;DHT22;52812;48.960;9.108;2024-02-21T10:03:04;10.20;99.90
3086;DHT22;52812;48.960;9.108;2024-02-21T10:05:34;10.30;99.90
3086;DHT22;52812;48.960;9.108;2024-02-21T10:08:01;10.40;99.90
3086;DHT22;52812;48.960;9.108;2024-02-21T10:10:26;10.40;99.90
3086;DHT22;52812;48.960;9.108;2024-02-21T10:12:53;10.40;99.90
3086;DHT22;52812;48.960;9.108;2024-02-21T10:15:23;10.50;99.90
3086;DHT22;52812;48.960;9.108;2024-02-21T10:17:57;10.50;99.90
3086;DHT22;52812;48.960;9.108;2024-02-21T10:20:23;10.50;99.90
3086;DHT22;52812;48.960;9.108;2024-02-21T10:22:48;10.60;99.90
3086;DHT22;52812;48.960;9.108;2024-02-21T10:25:14;10.70;99.90
3086;DHT22;52812;48.960;9.108;2024-02-21T10:27:40;10.80;99.90
3086;DHT22;52812;48.960;9.108;2024-02-21T10:30:07;10.70;99.90
3086;DHT22;52812;48.960;9.108;2024-02-21T10:32:33;10.90;99.90
3086;DHT22;52812;48.960;9.108;2024-02-21T10:35:03;10.90;99.90
3086;DHT22;52812;48.960;9.108;2024-02-21T10:37:32;10.70;99.90
3086;DHT22;52812;48.960;9.108;2024-02-21T10:39:58;10.50;99.90
3086;DHT22;52812;48.960;9.108;2024-02-21T10:42:26;10.30;99.90
3086;DHT22;52812;48.960;9.108;2024-02-21T10:44:55;10.50;99.90
3086;DHT22;52812;48.960;9.108;2024-02-21T10:47:25;10.60;99.90
3086;DHT22;52812;48.960;9.108;2024-02-21T10:50:00;10.80;99.90
3086;DHT22;52812;48.960;9.108;2024-02-21T10:55:57;11.20;99.90
3086;DHT22;52812;48.960;9.108;2024-02-21T10:58:24;11.40;99.90
3086;DHT22;52812;48.960;9.108;2024-02-21T11:00:51;11.40;99.90
3086;DHT22;52812;48.960;9.108;2024-02-21T11:03:17;11.50;99.90
3086;DHT22;52812;48.960;9.108;2024-02-21T11:05:43;11.50;99.90
3086;DHT22;52812;48.960;9.108;2024-02-21T11:08:11;11.70;99.90
3086;DHT22;52812;48.960;9.108;2024-02-21T11:10:38;11.60;99.90
3086;DHT22;52812;48.960;9.108;2024-02-21T11:13:08;11.60;99.90
3086;DHT22;52812;48.960;9.108;2024-02-21T11:15:34;11.70;99.90
3086;DHT22;52812;48.960;9.108;2024-02-21T11:18:00;11.70;99.90
3086;DHT22;52812;48.960;9.108;2024-02-21T11:20:32;11.70;99.90
3086;DHT22;52812;48.960;9.108;2024-02-21T11:22:59;11.80;99.90
3086;DHT22;52812;48.960;9.108;2024-02-21T11:25:26;11.80;99.90
3086;DHT22;52812;48.960;9.108;2024-02-21T11:28:02;11.80;99.90
3086;DHT22;52812;48.960;9.108;2024-02-21T11:30:35;11.90;99.90
3086;DHT22;52812;48.960;9.108;2024-02-21T11:33:07;11.90;99.90
3086;DHT22;52812;48.960;9.108;2024-02-21T11:35:34;12.00;99.90
3086;DHT22;52812;48.960;9.108;2024-02-21T11:38:13;12.00;99.90
3086;DHT22;52812;48.960;9.108;2024-02-21T11:40:46;12.00;99.90
3086;DHT22;52812;48.960;9.108;2024-02-21T11:43:12;11.90;99.90
3086;DHT22;52812;48.960;9.108;2024-02-21T11:45:38;11.90;99.90
3086;DHT22;52812;48.960;9.108;2024-02-21T11:48:06;12.10;99.90
3086;DHT22;52812;48.960;9.108;2024-02-21T11:50:35;12.10;99.90
3086;DHT22;52812;48.960;9.108;2024-02-21T11:53:05;12.20;99.90
3086;DHT22;52812;48.960;9.108;2024-02-21T11:55:30;12.20;99.90
3086;DHT22;52812;48.960;9.108;2024-02-21T11:57:56;12.10;99.90
3086;DHT22;52812;48.960;9.108;2024-02-21T12:00:22;12.10;99.90
3086;DHT22;52812;48.960;9.108;2024-02-21T12:02:50;12.10;99.90
3086;DHT22;52812;48.960;9.108;2024-02-21T12:05:16;12.00;99.90
3086;DHT22;52812;48.960;9.108;2024-02-21T12:07:41;12.00;99.90
3086;DHT22;52812;48.960;9.108;2024-02-21T12:10:12;11.90;99.90
3086;DHT22;52812;48.960;9.108;2024-02-21T12:12:38;11.90;99.90
3086;DHT22;52812;48.960;9.108;2024-02-21T12:15:05;12.00;99.90
3086;DHT22;52812;48.960;9.108;2024-02-21T12:17:33;12.10;99.90
3086;DHT22;52812;48.960;9.108;2024-02-21T12:20:00;12.30;99.90
3086;DHT22;52812;48.960;9.108;2024-02-21T12:22:26;12.20;99.90
3086;DHT22;52812;48.960;9.108;2024-02-21T12:24:52;12.10;99.90
3086;DHT22;52812;48.960;9.108;2024-02-21T12:27:18;12.00;99.90
3086;DHT22;52812;48.960;9.108;2024-02-21T12:29:43;12.20;99.90
3086;DHT22;52812;48.960;9.108;2024-02-21T12:32:09;12.30;99.90
3086;DHT22;52812;48.960;9.108;2024-02-21T12:34:34;12.40;99.90
3086;DHT22;52812;48.960;9.108;2024-02-21T12:37:02;12.50;99.90
3086;DHT22;52812;48.960;9.108;2024-02-21T12:39:28;12.50;99.90
3086;DHT22;52812;48.960;9.108;2024-02-21T12:41:54;12.50;99.90
3086;DHT22;52812;48.960;9.108;2024-02-21T12:44:21;12.50;99.90
3086;DHT22;52812;48.960;9.108;2024-02-21T12:46:47;12.60;99.90
3086;DHT22;52812;48.960;9.108;2024-02-21T12:49:17;12.60;99.90
3086;DHT22;52812;48.960;9.108;2024-02-21T12:51:43;12.60;99.90
3086;DHT22;52812;48.960;9.108;2024-02-21T12:54:09;12.40;99.90
3086;DHT22;52812;48.960;9.108;2024-02-21T12:56:36;12.40;99.90
3086;DHT22;52812;48.960;9.108;2024-02-21T12:59:02;12.30;99.90
3086;DHT22;52812;48.960;9.108;2024-02-21T13:01:27;12.10;99.90
3086;DHT22;52812;48.960;9.108;2024-02-21T13:03:53;12.00;99.90
3086;DHT22;52812;48.960;9.108;2024-02-21T13:06:23;11.90;99.90
3086;DHT22;52812;48.960;9.108;2024-02-21T13:08:49;12.00;99.90
3086;DHT22;52812;48.960;9.108;2024-02-21T13:11:16;12.10;99.90
3086;DHT22;52812;48.960;9.108;2024-02-21T13:13:42;12.10;99.90
3086;DHT22;52812;48.960;9.108;2024-02-21T13:16:07;12.10;99.90
3086;DHT22;52812;48.960;9.108;2024-02-21T13:18:34;12.10;99.90
3086;DHT22;52812;48.960;9.108;2024-02-21T13:21:00;12.10;99.90
3086;DHT22;52812;48.960;9.108;2024-02-21T13:23:26;12.00;99.90
3086;DHT22;52812;48.960;9.108;2024-02-21T13:25:52;12.00;99.90
3086;DHT22;52812;48.960;9.108;2024-02-21T13:28:17;12.10;99.90
3086;DHT22;52812;48.960;9.108;2024-02-21T13:30:43;12.10;99.90
3086;DHT22;52812;48.960;9.108;2024-02-21T13:33:09;12.10;99.90
3086;DHT22;52812;48.960;9.108;2024-02-21T13:35:35;12.10;99.90
3086;DHT22;52812;48.960;9.108;2024-02-21T13:38:02;12.00;99.90
3086;DHT22;52812;48.960;9.108;2024-02-21T13:40:28;12.20;99.90
3086;DHT22;52812;48.960;9.108;2024-02-21T13:42:53;12.10;99.90
3086;DHT22;52812;48.960;9.108;2024-02-21T13:45:19;12.00;99.90
3086;DHT22;52812;48.960;9.108;2024-02-21T13:47:45;12.00;99.90
3086;DHT22;52812;48.960;9.108;2024-02-21T13:50:10;12.10;99.90
3086;DHT22;52812;48.960;9.108;2024-02-21T13:52:37;12.10;99.90
3086;DHT22;52812;48.960;9.108;2024-02-21T13:55:03;12.20;99.90
3086;DHT22;52812;48.960;9.108;2024-02-21T13:57:29;12.10;99.90
3086;DHT22;52812;48.960;9.108;2024-02-21T13:59:55;12.00;99.90
3086;DHT22;52812;48.960;9.108;2024-02-21T14:02:20;12.00;99.90
3086;DHT22;52812;48.960;9.108;2024-02-21T14:04:46;12.00;99.90
3086;DHT22;52812;48.960;9.108;2024-02-21T14:07:12;12.10;99.90
3086;DHT22;52812;48.960;9.108;2024-02-21T14:09:38;12.10;99.90
3086;DHT22;52812;48.960;9.108;2024-02-21T14:12:03;12.00;99.90
3086;DHT22;52812;48.960;9.108;2024-02-21T14:14:34;12.00;99.90
3086;DHT22;52812;48.960;9.108;2024-02-21T14:17:00;11.80;99.90
3086;DHT22;52812;48.960;9.108;2024-02-21T14:19:25;11.80;99.90
3086;DHT22;52812;48.960;9.108;2024-02-21T14:21:51;11.80;99.90
3086;DHT22;52812;48.960;9.108;2024-02-21T14:24:16;11.70;99.90
3086;DHT22;52812;48.960;9.108;2024-02-21T14:26:42;11.70;99.90
3086;DHT22;52812;48.960;9.108;2024-02-21T14:29:08;11.70;99.90
3086;DHT22;52812;48.960;9.108;2024-02-21T14:31:33;11.80;99.90
3086;DHT22;52812;48.960;9.108;2024-02-21T14:33:59;11.80;99.90
3086;DHT22;52812;48.960;9.108;2024-02-21T14:36:26;12.00;99.90
3086;DHT22;52812;48.960;9.108;2024-02-21T14:38:52;12.00;99.90
3086;DHT22;52812;48.960;9.108;2024-02-21T14:41:18;12.00;99.90
3086;DHT22;52812;48.960;9.108;2024-02-21T14:43:44;11.90;99.90
3086;DHT22;52812;48.960;9.108;2024-02-21T14:46:10;11.90;99.90
3086;DHT22;52812;48.960;9.108;2024-02-21T14:48:37;12.00;99.90
3086;DHT22;52812;48.960;9.108;2024-02-21T14:51:06;11.90;99.90
3086;DHT22;52812;48.960;9.108;2024-02-21T14:53:36;11.90;99.90
3086;DHT22;52812;48.960;9.108;2024-02-21T14:56:01;12.00;99.90
3086;DHT22;52812;48.960;9.108;2024-02-21T14:58:27;11.80;99.90
3086;DHT22;52812;48.960;9.108;2024-02-21T15:00:53;11.80;99.90
3086;DHT22;52812;48.960;9.108;2024-02-21T15:03:21;11.70;99.90
3086;DHT22;52812;48.960;9.108;2024-02-21T15:05:47;11.70;99.90
3086;DHT22;52812;48.960;9.108;2024-02-21T15:08:13;11.70;99.90
3086;DHT22;52812;48.960;9.108;2024-02-21T15:10:42;11.60;99.90
3086;DHT22;52812;48.960;9.108;2024-02-21T15:13:08;11.60;99.90
3086;DHT22;52812;48.960;9.108;2024-02-21T15:15:33;11.50;99.90
3086;DHT22;52812;48.960;9.108;2024-02-21T15:17:59;11.50;99.90
3086;DHT22;52812;48.960;9.108;2024-02-21T15:20:24;11.50;99.90
3086;DHT22;52812;48.960;9.108;2024-02-21T15:22:50;11.50;99.90
3086;DHT22;52812;48.960;9.108;2024-02-21T15:25:15;11.50;99.90
3086;DHT22;52812;48.960;9.108;2024-02-21T15:27:43;11.60;99.90
3086;DHT22;52812;48.960;9.108;2024-02-21T15:30:10;11.50;99.90
3086;DHT22;52812;48.960;9.108;2024-02-21T15:32:37;11.50;99.90
3086;DHT22;52812;48.960;9.108;2024-02-21T15:35:04;11.50;99.90
3086;DHT22;52812;48.960;9.108;2024-02-21T15:37:31;11.50;99.90
3086;DHT22;52812;48.960;9.108;2024-02-21T15:39:57;11.50;99.90
3086;DHT22;52812;48.960;9.108;2024-02-21T15:42:23;11.40;99.90
3086;DHT22;52812;48.960;9.108;2024-02-21T15:44:48;11.40;99.90
3086;DHT22;52812;48.960;9.108;2024-02-21T15:47:14;11.40;99.90
3086;DHT22;52812;48.960;9.108;2024-02-21T15:49:40;11.40;99.90
3086;DHT22;52812;48.960;9.108;2024-02-21T15:52:07;11.30;99.90
3086;DHT22;52812;48.960;9.108;2024-02-21T15:54:32;11.30;99.90